sensor_id;sensor_type;location;lat;lon;timestamp;P1;P2;P0
53678;PMS5003;40119;52.030;4.708;2022-08-05T00:00:20;9;8;
53678;PMS5003;40119;52.030;4.708;2022-08-05T00:02:24;7;7;
53678;PMS5003;40119;52.030;4.708;2022-08-05T00:04:29;8;8;
53678;PMS5003;40119;52.030;4.708;2022-08-05T00:06:33;8;7;
53678;PMS5003;40119;52.030;4.708;2022-08-05T00:08:38;7;7;
53678;PMS5003;40119;52.030;4.708;2022-08-05T00:10:43;8;8;
53678;PMS5003;40119;52.030;4.708;2022-08-05T00:12:48;8;8;
53678;PMS5003;40119;52.030;4.708;2022-08-05T00:14:52;10;8;
53678;PMS5003;40119;52.030;4.708;2022-08-05T00:16:58;11;11;
53678;PMS5003;40119;52.030;4.708;2022-08-05T00:19:02;8;8;
53678;PMS5003;40119;52.030;4.708;2022-08-05T00:21:07;9;7;
53678;PMS5003;40119;52.030;4.708;2022-08-05T00:23:12;7;7;
53678;PMS5003;40119;52.030;4.708;2022-08-05T00:25:16;8;8;
53678;PMS5003;40119;52.030;4.708;2022-08-05T00:27:21;11;8;
53678;PMS5003;40119;52.030;4.708;2022-08-05T00:29:25;8;8;
53678;PMS5003;40119;52.030;4.708;2022-08-05T00:31:30;7;7;
53678;PMS5003;40119;52.030;4.708;2022-08-05T00:33:34;5;5;
53678;PMS5003;40119;52.030;4.708;2022-08-05T00:35:38;7;7;
53678;PMS5003;40119;52.030;4.708;2022-08-05T00:37:43;7;7;
53678;PMS5003;40119;52.030;4.708;2022-08-05T00:39:47;6;6;
53678;PMS5003;40119;52.030;4.708;2022-08-05T00:41:51;7;6;
53678;PMS5003;40119;52.030;4.708;2022-08-05T00:43:56;9;9;
53678;PMS5003;40119;52.030;4.708;2022-08-05T00:46:01;7;7;
53678;PMS5003;40119;52.030;4.708;2022-08-05T00:48:05;8;8;
53678;PMS5003;40119;52.030;4.708;2022-08-05T00:50:11;5;5;
53678;PMS5003;40119;52.030;4.708;2022-08-05T00:52:15;7;6;
53678;PMS5003;40119;52.030;4.708;2022-08-05T00:54:20;6;6;
53678;PMS5003;40119;52.030;4.708;2022-08-05T00:56:24;6;5;
53678;PMS5003;40119;52.030;4.708;2022-08-05T00:58:29;5;5;
53678;PMS5003;40119;52.030;4.708;2022-08-05T01:00:34;7;7;
53678;PMS5003;40119;52.030;4.708;2022-08-05T01:02:39;8;8;
53678;PMS5003;40119;52.030;4.708;2022-08-05T01:04:44;6;5;
53678;PMS5003;40119;52.030;4.708;2022-08-05T01:06:49;8;7;
53678;PMS5003;40119;52.030;4.708;2022-08-05T01:08:54;7;6;
53678;PMS5003;40119;52.030;4.708;2022-08-05T01:11:01;8;7;
53678;PMS5003;40119;52.030;4.708;2022-08-05T01:13:15;8;8;
53678;PMS5003;40119;52.030;4.708;2022-08-05T01:15:28;7;6;
53678;PMS5003;40119;52.030;4.708;2022-08-05T01:17:38;7;6;
53678;PMS5003;40119;52.030;4.708;2022-08-05T01:19:49;7;7;
53678;PMS5003;40119;52.030;4.708;2022-08-05T01:22:06;5;4;
53678;PMS5003;40119;52.030;4.708;2022-08-05T01:24:25;5;5;
53678;PMS5003;40119;52.030;4.708;2022-08-05T01:26:47;7;7;
53678;PMS5003;40119;52.030;4.708;2022-08-05T01:29:04;8;8;
53678;PMS5003;40119;52.030;4.708;2022-08-05T01:31:17;5;5;
53678;PMS5003;40119;52.030;4.708;2022-08-05T01:33:31;8;7;
53678;PMS5003;40119;52.030;4.708;2022-08-05T01:35:42;7;6;
53678;PMS5003;40119;52.030;4.708;2022-08-05T01:37:52;6;6;
53678;PMS5003;40119;52.030;4.708;2022-08-05T01:39:59;7;6;
53678;PMS5003;40119;52.030;4.708;2022-08-05T01:42:06;7;7;
53678;PMS5003;40119;52.030;4.708;2022-08-05T01:44:16;7;7;
53678;PMS5003;40119;52.030;4.708;2022-08-05T01:46:23;8;8;
53678;PMS5003;40119;52.030;4.708;2022-08-05T01:48:29;7;7;
53678;PMS5003;40119;52.030;4.708;2022-08-05T01:50:38;6;6;
53678;PMS5003;40119;52.030;4.708;2022-08-05T01:52:44;5;5;
53678;PMS5003;40119;52.030;4.708;2022-08-05T01:54:51;6;6;
53678;PMS5003;40119;52.030;4.708;2022-08-05T01:56:59;3;3;
53678;PMS5003;40119;52.030;4.708;2022-08-05T01:59:08;5;5;
53678;PMS5003;40119;52.030;4.708;2022-08-05T02:01:16;6;6;
53678;PMS5003;40119;52.030;4.708;2022-08-05T02:03:23;6;6;
53678;PMS5003;40119;52.030;4.708;2022-08-05T02:05:30;7;5;
53678;PMS5003;40119;52.030;4.708;2022-08-05T02:07:37;6;6;
53678;PMS5003;40119;52.030;4.708;2022-08-05T02:09:44;6;6;
53678;PMS5003;40119;52.030;4.708;2022-08-05T02:11:50;9;6;
53678;PMS5003;40119;52.030;4.708;2022-08-05T02:14:03;3;3;
53678;PMS5003;40119;52.030;4.708;2022-08-05T02:16:14;4;3;
53678;PMS5003;40119;52.030;4.708;2022-08-05T02:18:26;5;5;
53678;PMS5003;40119;52.030;4.708;2022-08-05T02:20:36;5;5;
53678;PMS5003;40119;52.030;4.708;2022-08-05T02:22:54;7;7;
53678;PMS5003;40119;52.030;4.708;2022-08-05T02:25:03;5;5;
53678;PMS5003;40119;52.030;4.708;2022-08-05T02:27:11;6;6;
53678;PMS5003;40119;52.030;4.708;2022-08-05T02:29:19;6;6;
53678;PMS5003;40119;52.030;4.708;2022-08-05T02:31:26;6;6;
53678;PMS5003;40119;52.030;4.708;2022-08-05T02:33:35;6;4;
53678;PMS5003;40119;52.030;4.708;2022-08-05T02:35:44;7;6;
53678;PMS5003;40119;52.030;4.708;2022-08-05T02:37:49;5;5;
53678;PMS5003;40119;52.030;4.708;2022-08-05T02:39:56;6;6;
53678;PMS5003;40119;52.030;4.708;2022-08-05T02:42:01;5;4;
53678;PMS5003;40119;52.030;4.708;2022-08-05T02:44:08;9;8;
53678;PMS5003;40119;52.030;4.708;2022-08-05T02:46:14;4;4;
53678;PMS5003;40119;52.030;4.708;2022-08-05T02:48:19;4;3;
53678;PMS5003;40119;52.030;4.708;2022-08-05T02:50:25;6;4;
53678;PMS5003;40119;52.030;4.708;2022-08-05T02:52:30;3;3;
53678;PMS5003;40119;52.030;4.708;2022-08-05T02:54:36;4;4;
53678;PMS5003;40119;52.030;4.708;2022-08-05T02:56:42;5;4;
53678;PMS5003;40119;52.030;4.708;2022-08-05T02:58:47;4;4;
53678;PMS5003;40119;52.030;4.708;2022-08-05T03:00:54;3;3;
53678;PMS5003;40119;52.030;4.708;2022-08-05T03:03:01;5;5;
53678;PMS5003;40119;52.030;4.708;2022-08-05T03:05:08;4;4;
53678;PMS5003;40119;52.030;4.708;2022-08-05T03:07:14;2;2;
53678;PMS5003;40119;52.030;4.708;2022-08-05T03:09:21;4;4;
53678;PMS5003;40119;52.030;4.708;2022-08-05T03:11:26;7;6;
53678;PMS5003;40119;52.030;4.708;2022-08-05T03:13:31;4;4;
53678;PMS5003;40119;52.030;4.708;2022-08-05T03:15:40;2;2;
53678;PMS5003;40119;52.030;4.708;2022-08-05T03:17:45;4;2;
53678;PMS5003;40119;52.030;4.708;2022-08-05T03:19:50;3;3;
53678;PMS5003;40119;52.030;4.708;2022-08-05T03:21:54;4;4;
53678;PMS5003;40119;52.030;4.708;2022-08-05T03:23:59;4;4;
53678;PMS5003;40119;52.030;4.708;2022-08-05T03:26:05;3;3;
53678;PMS5003;40119;52.030;4.708;2022-08-05T03:28:10;6;3;
53678;PMS5003;40119;52.030;4.708;2022-08-05T03:30:14;3;3;
53678;PMS5003;40119;52.030;4.708;2022-08-05T03:32:19;3;3;
53678;PMS5003;40119;52.030;4.708;2022-08-05T03:34:24;2;2;
53678;PMS5003;40119;52.030;4.708;2022-08-05T03:36:31;4;4;
53678;PMS5003;40119;52.030;4.708;2022-08-05T03:38:38;6;5;
53678;PMS5003;40119;52.030;4.708;2022-08-05T03:40:44;2;2;
53678;PMS5003;40119;52.030;4.708;2022-08-05T03:42:49;2;2;
53678;PMS5003;40119;52.030;4.708;2022-08-05T03:44:54;4;4;
53678;PMS5003;40119;52.030;4.708;2022-08-05T03:46:58;4;3;
53678;PMS5003;40119;52.030;4.708;2022-08-05T03:49:03;3;3;
53678;PMS5003;40119;52.030;4.708;2022-08-05T03:51:11;5;5;
53678;PMS5003;40119;52.030;4.708;2022-08-05T03:53:22;3;3;
53678;PMS5003;40119;52.030;4.708;2022-08-05T03:55:32;4;4;
53678;PMS5003;40119;52.030;4.708;2022-08-05T03:57:43;4;3;
53678;PMS5003;40119;52.030;4.708;2022-08-05T03:59:49;6;3;
53678;PMS5003;40119;52.030;4.708;2022-08-05T04:01:59;3;3;
53678;PMS5003;40119;52.030;4.708;2022-08-05T04:04:05;4;3;
53678;PMS5003;40119;52.030;4.708;2022-08-05T04:06:11;3;3;
53678;PMS5003;40119;52.030;4.708;2022-08-05T04:08:16;3;3;
53678;PMS5003;40119;52.030;4.708;2022-08-05T04:10:21;3;3;
53678;PMS5003;40119;52.030;4.708;2022-08-05T04:12:26;2;2;
53678;PMS5003;40119;52.030;4.708;2022-08-05T04:14:31;3;3;
53678;PMS5003;40119;52.030;4.708;2022-08-05T04:16:36;5;3;
53678;PMS5003;40119;52.030;4.708;2022-08-05T04:18:42;4;4;
53678;PMS5003;40119;52.030;4.708;2022-08-05T04:20:51;6;2;
53678;PMS5003;40119;52.030;4.708;2022-08-05T04:22:56;3;3;
53678;PMS5003;40119;52.030;4.708;2022-08-05T04:25:01;2;2;
53678;PMS5003;40119;52.030;4.708;2022-08-05T04:27:05;3;3;
53678;PMS5003;40119;52.030;4.708;2022-08-05T04:29:10;1;1;
53678;PMS5003;40119;52.030;4.708;2022-08-05T04:31:15;3;2;
53678;PMS5003;40119;52.030;4.708;2022-08-05T04:33:19;4;3;
53678;PMS5003;40119;52.030;4.708;2022-08-05T04:35:23;3;3;
53678;PMS5003;40119;52.030;4.708;2022-08-05T04:37:28;2;2;
53678;PMS5003;40119;52.030;4.708;2022-08-05T04:39:32;3;3;
53678;PMS5003;40119;52.030;4.708;2022-08-05T04:41:36;2;2;
53678;PMS5003;40119;52.030;4.708;2022-08-05T04:43:41;3;3;
53678;PMS5003;40119;52.030;4.708;2022-08-05T04:45:45;2;2;
53678;PMS5003;40119;52.030;4.708;2022-08-05T04:47:50;5;5;
53678;PMS5003;40119;52.030;4.708;2022-08-05T04:49:54;3;3;
53678;PMS5003;40119;52.030;4.708;2022-08-05T04:52:00;2;2;
53678;PMS5003;40119;52.030;4.708;2022-08-05T04:54:04;3;3;
53678;PMS5003;40119;52.030;4.708;2022-08-05T04:56:09;2;1;
53678;PMS5003;40119;52.030;4.708;2022-08-05T04:58:14;2;2;
53678;PMS5003;40119;52.030;4.708;2022-08-05T05:00:19;4;3;
53678;PMS5003;40119;52.030;4.708;2022-08-05T05:02:24;3;2;
53678;PMS5003;40119;52.030;4.708;2022-08-05T05:04:29;3;2;
53678;PMS5003;40119;52.030;4.708;2022-08-05T05:06:38;1;1;
53678;PMS5003;40119;52.030;4.708;2022-08-05T05:08:48;1;1;
53678;PMS5003;40119;52.030;4.708;2022-08-05T05:10:53;3;3;
53678;PMS5003;40119;52.030;4.708;2022-08-05T05:12:58;3;2;
53678;PMS5003;40119;52.030;4.708;2022-08-05T05:15:03;1;1;
53678;PMS5003;40119;52.030;4.708;2022-08-05T05:17:08;2;2;
53678;PMS5003;40119;52.030;4.708;2022-08-05T05:19:13;2;2;
53678;PMS5003;40119;52.030;4.708;2022-08-05T05:21:17;2;2;
53678;PMS5003;40119;52.030;4.708;2022-08-05T05:23:21;2;2;
53678;PMS5003;40119;52.030;4.708;2022-08-05T05:25:26;1;1;
53678;PMS5003;40119;52.030;4.708;2022-08-05T05:27:32;3;3;
53678;PMS5003;40119;52.030;4.708;2022-08-05T05:29:37;2;2;
53678;PMS5003;40119;52.030;4.708;2022-08-05T05:31:41;4;3;
53678;PMS5003;40119;52.030;4.708;2022-08-05T05:33:46;2;2;
53678;PMS5003;40119;52.030;4.708;2022-08-05T05:35:50;2;2;
53678;PMS5003;40119;52.030;4.708;2022-08-05T05:37:56;3;3;
53678;PMS5003;40119;52.030;4.708;2022-08-05T05:40:03;4;3;
53678;PMS5003;40119;52.030;4.708;2022-08-05T05:42:10;2;2;
53678;PMS5003;40119;52.030;4.708;2022-08-05T05:44:14;3;1;
53678;PMS5003;40119;52.030;4.708;2022-08-05T05:46:19;3;3;
53678;PMS5003;40119;52.030;4.708;2022-08-05T05:48:23;3;3;
53678;PMS5003;40119;52.030;4.708;2022-08-05T05:50:27;5;2;
53678;PMS5003;40119;52.030;4.708;2022-08-05T05:52:32;3;2;
53678;PMS5003;40119;52.030;4.708;2022-08-05T05:54:36;2;2;
53678;PMS5003;40119;52.030;4.708;2022-08-05T05:56:41;4;3;
53678;PMS5003;40119;52.030;4.708;2022-08-05T05:58:45;2;2;
53678;PMS5003;40119;52.030;4.708;2022-08-05T06:00:49;1;1;
53678;PMS5003;40119;52.030;4.708;2022-08-05T06:02:56;2;2;
53678;PMS5003;40119;52.030;4.708;2022-08-05T06:05:00;2;2;
53678;PMS5003;40119;52.030;4.708;2022-08-05T06:07:04;3;3;
53678;PMS5003;40119;52.030;4.708;2022-08-05T06:09:09;2;2;
53678;PMS5003;40119;52.030;4.708;2022-08-05T06:11:14;1;1;
53678;PMS5003;40119;52.030;4.708;2022-08-05T06:13:18;1;1;
53678;PMS5003;40119;52.030;4.708;2022-08-05T06:15:23;4;4;
53678;PMS5003;40119;52.030;4.708;2022-08-05T06:17:33;2;2;
53678;PMS5003;40119;52.030;4.708;2022-08-05T06:19:38;1;1;
53678;PMS5003;40119;52.030;4.708;2022-08-05T06:21:42;5;4;
53678;PMS5003;40119;52.030;4.708;2022-08-05T06:23:46;1;1;
53678;PMS5003;40119;52.030;4.708;2022-08-05T06:25:51;2;2;
53678;PMS5003;40119;52.030;4.708;2022-08-05T06:27:55;2;2;
53678;PMS5003;40119;52.030;4.708;2022-08-05T06:30:00;3;1;
53678;PMS5003;40119;52.030;4.708;2022-08-05T06:32:04;4;4;
53678;PMS5003;40119;52.030;4.708;2022-08-05T06:34:09;3;2;
53678;PMS5003;40119;52.030;4.708;2022-08-05T06:36:13;4;4;
53678;PMS5003;40119;52.030;4.708;2022-08-05T06:38:18;1;1;
53678;PMS5003;40119;52.030;4.708;2022-08-05T06:40:22;1;1;
53678;PMS5003;40119;52.030;4.708;2022-08-05T06:42:27;4;3;
53678;PMS5003;40119;52.030;4.708;2022-08-05T06:44:31;4;4;
53678;PMS5003;40119;52.030;4.708;2022-08-05T06:46:36;4;3;
53678;PMS5003;40119;52.030;4.708;2022-08-05T06:48:40;3;3;
53678;PMS5003;40119;52.030;4.708;2022-08-05T06:50:44;1;1;
53678;PMS5003;40119;52.030;4.708;2022-08-05T06:52:49;3;2;
53678;PMS5003;40119;52.030;4.708;2022-08-05T06:54:53;3;2;
53678;PMS5003;40119;52.030;4.708;2022-08-05T06:56:58;2;2;
53678;PMS5003;40119;52.030;4.708;2022-08-05T06:59:02;1;0;
53678;PMS5003;40119;52.030;4.708;2022-08-05T07:01:07;4;3;
53678;PMS5003;40119;52.030;4.708;2022-08-05T07:03:11;4;3;
53678;PMS5003;40119;52.030;4.708;2022-08-05T07:05:16;2;2;
53678;PMS5003;40119;52.030;4.708;2022-08-05T07:07:20;3;1;
53678;PMS5003;40119;52.030;4.708;2022-08-05T07:09:24;0;0;
53678;PMS5003;40119;52.030;4.708;2022-08-05T07:11:29;3;1;
53678;PMS5003;40119;52.030;4.708;2022-08-05T07:13:33;1;1;
53678;PMS5003;40119;52.030;4.708;2022-08-05T07:15:37;1;1;
53678;PMS5003;40119;52.030;4.708;2022-08-05T07:17:42;1;1;
53678;PMS5003;40119;52.030;4.708;2022-08-05T07:19:47;1;1;
53678;PMS5003;40119;52.030;4.708;2022-08-05T07:21:51;1;1;
53678;PMS5003;40119;52.030;4.708;2022-08-05T07:23:56;0;0;
53678;PMS5003;40119;52.030;4.708;2022-08-05T07:26:00;3;1;
53678;PMS5003;40119;52.030;4.708;2022-08-05T07:28:04;6;6;
53678;PMS5003;40119;52.030;4.708;2022-08-05T07:30:09;0;0;
53678;PMS5003;40119;52.030;4.708;2022-08-05T07:32:14;2;1;
53678;PMS5003;40119;52.030;4.708;2022-08-05T07:34:19;3;1;
53678;PMS5003;40119;52.030;4.708;2022-08-05T07:36:23;1;0;
53678;PMS5003;40119;52.030;4.708;2022-08-05T07:38:27;1;1;
53678;PMS5003;40119;52.030;4.708;2022-08-05T07:40:32;0;0;
53678;PMS5003;40119;52.030;4.708;2022-08-05T07:42:36;0;0;
53678;PMS5003;40119;52.030;4.708;2022-08-05T07:44:41;1;1;
53678;PMS5003;40119;52.030;4.708;2022-08-05T07:46:45;1;1;
53678;PMS5003;40119;52.030;4.708;2022-08-05T07:48:50;1;1;
53678;PMS5003;40119;52.030;4.708;2022-08-05T07:50:55;2;2;
53678;PMS5003;40119;52.030;4.708;2022-08-05T07:53:00;1;1;
53678;PMS5003;40119;52.030;4.708;2022-08-05T07:55:05;2;1;
53678;PMS5003;40119;52.030;4.708;2022-08-05T07:57:10;3;1;
53678;PMS5003;40119;52.030;4.708;2022-08-05T07:59:15;0;0;
53678;PMS5003;40119;52.030;4.708;2022-08-05T08:01:19;1;1;
53678;PMS5003;40119;52.030;4.708;2022-08-05T08:03:24;0;0;
53678;PMS5003;40119;52.030;4.708;2022-08-05T08:05:35;1;1;
53678;PMS5003;40119;52.030;4.708;2022-08-05T08:07:39;1;1;
53678;PMS5003;40119;52.030;4.708;2022-08-05T08:09:44;1;1;
53678;PMS5003;40119;52.030;4.708;2022-08-05T08:11:49;2;1;
53678;PMS5003;40119;52.030;4.708;2022-08-05T08:13:54;3;2;
53678;PMS5003;40119;52.030;4.708;2022-08-05T08:16:04;1;1;
53678;PMS5003;40119;52.030;4.708;2022-08-05T08:18:09;1;1;
53678;PMS5003;40119;52.030;4.708;2022-08-05T08:20:13;2;2;
53678;PMS5003;40119;52.030;4.708;2022-08-05T08:22:23;2;1;
53678;PMS5003;40119;52.030;4.708;2022-08-05T08:24:29;2;2;
53678;PMS5003;40119;52.030;4.708;2022-08-05T08:26:35;2;2;
53678;PMS5003;40119;52.030;4.708;2022-08-05T08:28:39;5;2;
53678;PMS5003;40119;52.030;4.708;2022-08-05T08:30:43;4;3;
53678;PMS5003;40119;52.030;4.708;2022-08-05T08:32:48;1;1;
53678;PMS5003;40119;52.030;4.708;2022-08-05T08:34:52;1;1;
53678;PMS5003;40119;52.030;4.708;2022-08-05T08:36:57;2;1;
53678;PMS5003;40119;52.030;4.708;2022-08-05T08:39:01;1;1;
53678;PMS5003;40119;52.030;4.708;2022-08-05T08:41:06;2;2;
53678;PMS5003;40119;52.030;4.708;2022-08-05T08:43:16;2;2;
53678;PMS5003;40119;52.030;4.708;2022-08-05T08:45:22;2;2;
53678;PMS5003;40119;52.030;4.708;2022-08-05T08:47:26;3;1;
53678;PMS5003;40119;52.030;4.708;2022-08-05T08:49:32;1;1;
53678;PMS5003;40119;52.030;4.708;2022-08-05T08:51:38;2;2;
53678;PMS5003;40119;52.030;4.708;2022-08-05T08:53:45;1;1;
53678;PMS5003;40119;52.030;4.708;2022-08-05T08:55:50;1;1;
53678;PMS5003;40119;52.030;4.708;2022-08-05T08:57:55;1;1;
53678;PMS5003;40119;52.030;4.708;2022-08-05T09:00:01;2;2;
53678;PMS5003;40119;52.030;4.708;2022-08-05T09:02:06;0;0;
53678;PMS5003;40119;52.030;4.708;2022-08-05T09:04:11;2;2;
53678;PMS5003;40119;52.030;4.708;2022-08-05T09:06:16;0;0;
53678;PMS5003;40119;52.030;4.708;2022-08-05T09:08:21;1;1;
53678;PMS5003;40119;52.030;4.708;2022-08-05T09:10:26;2;2;
53678;PMS5003;40119;52.030;4.708;2022-08-05T09:12:30;0;0;
53678;PMS5003;40119;52.030;4.708;2022-08-05T09:14:35;0;0;
53678;PMS5003;40119;52.030;4.708;2022-08-05T09:16:41;2;2;
53678;PMS5003;40119;52.030;4.708;2022-08-05T09:18:45;3;3;
53678;PMS5003;40119;52.030;4.708;2022-08-05T09:20:50;0;0;
53678;PMS5003;40119;52.030;4.708;2022-08-05T09:23:03;1;1;
53678;PMS5003;40119;52.030;4.708;2022-08-05T09:25:09;1;0;
53678;PMS5003;40119;52.030;4.708;2022-08-05T09:27:21;1;1;
53678;PMS5003;40119;52.030;4.708;2022-08-05T09:29:36;1;1;
53678;PMS5003;40119;52.030;4.708;2022-08-05T09:31:42;0;0;
53678;PMS5003;40119;52.030;4.708;2022-08-05T09:33:47;3;2;
53678;PMS5003;40119;52.030;4.708;2022-08-05T09:35:57;1;1;
53678;PMS5003;40119;52.030;4.708;2022-08-05T09:38:04;0;0;
53678;PMS5003;40119;52.030;4.708;2022-08-05T09:40:12;0;0;
53678;PMS5003;40119;52.030;4.708;2022-08-05T09:42:40;1;1;
53678;PMS5003;40119;52.030;4.708;2022-08-05T09:44:45;3;2;
53678;PMS5003;40119;52.030;4.708;2022-08-05T09:47:03;4;4;
53678;PMS5003;40119;52.030;4.708;2022-08-05T09:49:21;1;1;
53678;PMS5003;40119;52.030;4.708;2022-08-05T09:51:29;1;0;
53678;PMS5003;40119;52.030;4.708;2022-08-05T09:53:45;2;1;
53678;PMS5003;40119;52.030;4.708;2022-08-05T09:55:52;2;1;
53678;PMS5003;40119;52.030;4.708;2022-08-05T09:58:08;0;0;
53678;PMS5003;40119;52.030;4.708;2022-08-05T10:00:14;1;0;
53678;PMS5003;40119;52.030;4.708;2022-08-05T10:02:29;1;1;
53678;PMS5003;40119;52.030;4.708;2022-08-05T10:04:34;2;2;
53678;PMS5003;40119;52.030;4.708;2022-08-05T10:06:40;1;1;
53678;PMS5003;40119;52.030;4.708;2022-08-05T10:08:46;1;1;
53678;PMS5003;40119;52.030;4.708;2022-08-05T10:10:51;3;2;
53678;PMS5003;40119;52.030;4.708;2022-08-05T10:12:56;2;1;
53678;PMS5003;40119;52.030;4.708;2022-08-05T10:15:19;1;1;
53678;PMS5003;40119;52.030;4.708;2022-08-05T10:17:25;2;1;
53678;PMS5003;40119;52.030;4.708;2022-08-05T10:19:29;0;0;
53678;PMS5003;40119;52.030;4.708;2022-08-05T10:21:45;1;1;
53678;PMS5003;40119;52.030;4.708;2022-08-05T10:23:55;3;2;
53678;PMS5003;40119;52.030;4.708;2022-08-05T10:26:01;2;1;
53678;PMS5003;40119;52.030;4.708;2022-08-05T10:28:07;2;2;
53678;PMS5003;40119;52.030;4.708;2022-08-05T10:30:11;1;1;
53678;PMS5003;40119;52.030;4.708;2022-08-05T10:32:16;2;2;
53678;PMS5003;40119;52.030;4.708;2022-08-05T10:34:21;2;1;
53678;PMS5003;40119;52.030;4.708;2022-08-05T10:36:25;1;1;
53678;PMS5003;40119;52.030;4.708;2022-08-05T10:38:30;1;1;
53678;PMS5003;40119;52.030;4.708;2022-08-05T10:40:38;3;0;
53678;PMS5003;40119;52.030;4.708;2022-08-05T10:42:49;4;3;
53678;PMS5003;40119;52.030;4.708;2022-08-05T10:44:57;17;13;
53678;PMS5003;40119;52.030;4.708;2022-08-05T10:47:09;3;2;
53678;PMS5003;40119;52.030;4.708;2022-08-05T10:49:15;3;2;
53678;PMS5003;40119;52.030;4.708;2022-08-05T10:51:20;2;2;
53678;PMS5003;40119;52.030;4.708;2022-08-05T10:53:34;0;0;
53678;PMS5003;40119;52.030;4.708;2022-08-05T10:55:55;1;1;
53678;PMS5003;40119;52.030;4.708;2022-08-05T10:58:06;1;1;
53678;PMS5003;40119;52.030;4.708;2022-08-05T11:00:12;0;0;
53678;PMS5003;40119;52.030;4.708;2022-08-05T11:02:18;1;1;
53678;PMS5003;40119;52.030;4.708;2022-08-05T11:04:22;2;1;
53678;PMS5003;40119;52.030;4.708;2022-08-05T11:06:27;2;2;
53678;PMS5003;40119;52.030;4.708;2022-08-05T11:08:32;1;1;
53678;PMS5003;40119;52.030;4.708;2022-08-05T11:10:37;1;1;
53678;PMS5003;40119;52.030;4.708;2022-08-05T11:12:42;4;3;
53678;PMS5003;40119;52.030;4.708;2022-08-05T11:14:48;0;0;
53678;PMS5003;40119;52.030;4.708;2022-08-05T11:17:29;0;0;
53678;PMS5003;40119;52.030;4.708;2022-08-05T11:19:43;3;2;
53678;PMS5003;40119;52.030;4.708;2022-08-05T11:21:48;2;2;
53678;PMS5003;40119;52.030;4.708;2022-08-05T11:23:52;7;5;
53678;PMS5003;40119;52.030;4.708;2022-08-05T11:25:59;2;1;
53678;PMS5003;40119;52.030;4.708;2022-08-05T11:28:38;2;2;
53678;PMS5003;40119;52.030;4.708;2022-08-05T11:31:18;1;1;
53678;PMS5003;40119;52.030;4.708;2022-08-05T11:33:24;3;2;
53678;PMS5003;40119;52.030;4.708;2022-08-05T11:35:51;2;2;
53678;PMS5003;40119;52.030;4.708;2022-08-05T11:37:58;1;1;
53678;PMS5003;40119;52.030;4.708;2022-08-05T11:40:03;4;4;
53678;PMS5003;40119;52.030;4.708;2022-08-05T11:42:07;3;2;
53678;PMS5003;40119;52.030;4.708;2022-08-05T11:44:12;1;1;
53678;PMS5003;40119;52.030;4.708;2022-08-05T11:46:24;3;3;
53678;PMS5003;40119;52.030;4.708;2022-08-05T11:48:29;1;1;
53678;PMS5003;40119;52.030;4.708;2022-08-05T11:50:36;0;0;
53678;PMS5003;40119;52.030;4.708;2022-08-05T11:52:40;3;2;
53678;PMS5003;40119;52.030;4.708;2022-08-05T11:54:45;2;2;
53678;PMS5003;40119;52.030;4.708;2022-08-05T11:56:55;2;2;
53678;PMS5003;40119;52.030;4.708;2022-08-05T11:59:00;2;2;
53678;PMS5003;40119;52.030;4.708;2022-08-05T12:01:05;3;3;
53678;PMS5003;40119;52.030;4.708;2022-08-05T12:03:15;2;2;
53678;PMS5003;40119;52.030;4.708;2022-08-05T12:05:24;2;1;
53678;PMS5003;40119;52.030;4.708;2022-08-05T12:07:32;1;1;
53678;PMS5003;40119;52.030;4.708;2022-08-05T12:09:40;5;2;
53678;PMS5003;40119;52.030;4.708;2022-08-05T12:11:45;5;2;
53678;PMS5003;40119;52.030;4.708;2022-08-05T12:13:52;3;2;
53678;PMS5003;40119;52.030;4.708;2022-08-05T12:15:57;1;1;
53678;PMS5003;40119;52.030;4.708;2022-08-05T12:18:01;1;1;
53678;PMS5003;40119;52.030;4.708;2022-08-05T12:20:06;1;1;
53678;PMS5003;40119;52.030;4.708;2022-08-05T12:22:11;3;3;
53678;PMS5003;40119;52.030;4.708;2022-08-05T12:24:17;1;1;
53678;PMS5003;40119;52.030;4.708;2022-08-05T12:26:23;2;0;
53678;PMS5003;40119;52.030;4.708;2022-08-05T12:28:29;1;1;
53678;PMS5003;40119;52.030;4.708;2022-08-05T12:30:36;5;3;
53678;PMS5003;40119;52.030;4.708;2022-08-05T12:32:43;2;1;
53678;PMS5003;40119;52.030;4.708;2022-08-05T12:34:48;3;3;
53678;PMS5003;40119;52.030;4.708;2022-08-05T12:36:53;4;4;
53678;PMS5003;40119;52.030;4.708;2022-08-05T12:39:05;2;2;
53678;PMS5003;40119;52.030;4.708;2022-08-05T12:41:10;3;3;
53678;PMS5003;40119;52.030;4.708;2022-08-05T12:43:16;3;3;
53678;PMS5003;40119;52.030;4.708;2022-08-05T12:45:21;2;2;
53678;PMS5003;40119;52.030;4.708;2022-08-05T12:47:25;3;3;
53678;PMS5003;40119;52.030;4.708;2022-08-05T12:49:38;4;2;
53678;PMS5003;40119;52.030;4.708;2022-08-05T12:51:45;3;1;
53678;PMS5003;40119;52.030;4.708;2022-08-05T12:53:50;2;2;
53678;PMS5003;40119;52.030;4.708;2022-08-05T12:56:00;3;2;
53678;PMS5003;40119;52.030;4.708;2022-08-05T12:58:22;1;1;
53678;PMS5003;40119;52.030;4.708;2022-08-05T13:00:27;2;2;
53678;PMS5003;40119;52.030;4.708;2022-08-05T13:02:34;4;2;
53678;PMS5003;40119;52.030;4.708;2022-08-05T13:04:40;2;2;
53678;PMS5003;40119;52.030;4.708;2022-08-05T13:06:46;2;2;
53678;PMS5003;40119;52.030;4.708;2022-08-05T13:08:51;1;1;
53678;PMS5003;40119;52.030;4.708;2022-08-05T13:10:58;5;4;
53678;PMS5003;40119;52.030;4.708;2022-08-05T13:13:07;2;2;
53678;PMS5003;40119;52.030;4.708;2022-08-05T13:15:13;1;1;
53678;PMS5003;40119;52.030;4.708;2022-08-05T13:17:18;2;2;
53678;PMS5003;40119;52.030;4.708;2022-08-05T13:19:25;2;2;
53678;PMS5003;40119;52.030;4.708;2022-08-05T13:21:31;3;1;
53678;PMS5003;40119;52.030;4.708;2022-08-05T13:23:36;2;2;
53678;PMS5003;40119;52.030;4.708;2022-08-05T13:25:41;2;2;
53678;PMS5003;40119;52.030;4.708;2022-08-05T13:27:46;1;0;
53678;PMS5003;40119;52.030;4.708;2022-08-05T13:29:52;1;1;
53678;PMS5003;40119;52.030;4.708;2022-08-05T13:31:56;3;2;
53678;PMS5003;40119;52.030;4.708;2022-08-05T13:34:01;4;4;
53678;PMS5003;40119;52.030;4.708;2022-08-05T13:36:05;3;3;
53678;PMS5003;40119;52.030;4.708;2022-08-05T13:38:10;4;3;
53678;PMS5003;40119;52.030;4.708;2022-08-05T13:40:14;1;1;
53678;PMS5003;40119;52.030;4.708;2022-08-05T13:42:19;3;3;
53678;PMS5003;40119;52.030;4.708;2022-08-05T13:44:25;5;3;
53678;PMS5003;40119;52.030;4.708;2022-08-05T13:46:29;3;3;
53678;PMS5003;40119;52.030;4.708;2022-08-05T13:48:33;2;2;
53678;PMS5003;40119;52.030;4.708;2022-08-05T13:50:38;3;3;
53678;PMS5003;40119;52.030;4.708;2022-08-05T13:52:42;4;3;
53678;PMS5003;40119;52.030;4.708;2022-08-05T13:54:47;1;1;
53678;PMS5003;40119;52.030;4.708;2022-08-05T13:56:52;5;4;
53678;PMS5003;40119;52.030;4.708;2022-08-05T13:58:56;2;2;
53678;PMS5003;40119;52.030;4.708;2022-08-05T14:01:01;0;0;
53678;PMS5003;40119;52.030;4.708;2022-08-05T14:03:06;5;2;
53678;PMS5003;40119;52.030;4.708;2022-08-05T14:05:10;3;3;
53678;PMS5003;40119;52.030;4.708;2022-08-05T14:07:15;3;1;
53678;PMS5003;40119;52.030;4.708;2022-08-05T14:09:20;1;1;
53678;PMS5003;40119;52.030;4.708;2022-08-05T14:11:25;1;1;
53678;PMS5003;40119;52.030;4.708;2022-08-05T14:13:29;6;5;
53678;PMS5003;40119;52.030;4.708;2022-08-05T14:15:34;2;2;
53678;PMS5003;40119;52.030;4.708;2022-08-05T14:17:38;1;1;
53678;PMS5003;40119;52.030;4.708;2022-08-05T14:19:43;3;2;
53678;PMS5003;40119;52.030;4.708;2022-08-05T14:21:48;0;0;
53678;PMS5003;40119;52.030;4.708;2022-08-05T14:23:53;2;2;
53678;PMS5003;40119;52.030;4.708;2022-08-05T14:25:58;2;2;
53678;PMS5003;40119;52.030;4.708;2022-08-05T14:28:03;3;3;